Aeroporto :
LOGIN :

Iscrizione | Disclaimer

   EN    FR    IT 

 










Sommario :    VFR   VFR Marginale   IFR   IFR Intensivo   IFR Molto Intensivo
Visibilità : 
Base nubi : 
>= 8 km
>= 3000ft
5 / 8 km
1000 / 3000 ft
1500m / 5 km
500 / 1000 ft
800 / 1500m
200 / 500 ft
< 800m
< 200 ft
Simboli :   Temporali  Nebbia  Neve Forte  Precipitazioni Forti  Vento > 20 kt
SIGMETs :   Varie  Temporali  Ghiacco  Turbolenza  Onda orograficha  Ceneri Vulcaniche






- Altitudine del aeroporto : 364 ft
- Codice IATA : FRA


EDDF - Frankfurt Int.

ULTIMO METAR :
  • 071520Z 07008KT 010V110 CAVOK 27/05 Q1020 NOSIG

METARs OBSOLETI :
  • 071450Z 03008KT 320V080 CAVOK 27/05 Q1021 NOSIG
  • 071420Z 33012KT 300V360 CAVOK 27/06 Q1021 NOSIG
  • 071350Z 05006KT 360V100 CAVOK 27/05 Q1021 NOSIG
  • 071320Z 05008KT 010V090 CAVOK 27/06 Q1021 NOSIG

TAF TAF EDDF
Valido dal 07 a 12 ore il 08 a 18 ore UTC


071100Z 0712/0818 03011KT CAVOK



MetMap, La meteo Aeronautica in un colpo d'occhio ! - Copyright ORBIFLY Dicembre 2007 - Disclaimer

ORBIFLY MET'MAP TEAM :

Programmazione e sviluppo : Alexandra Zaïnal
Concezione : Baudouin d'Aumeries
Supporto tecnico e logistico : Manuel Goepfert
Aiuto : Marc-Olivier Méhu
Aiuto per la traduzione : Arnaldo La Scala




FONTI E CREDITI :

   NOAA